Time;durP1;ratioP1;P1;durP2;ratioP2;P2;SDS_P1;SDS_P2;PMS_P1;PMS_P2;Temp;Humidity;BMP_temperature;BMP_pressure;BME280_temperature;BME280_humidity;BME280_pressure;Samples;Min_cycle;Max_cycle;Signal;HPM_P1;HPM_P2
2022/08/02 00:02:06;;;;;;;0.00;0.00;;;18.10;99.90;;;;;;5028675;28;20266;-73
2022/08/02 00:04:33;;;;;;;0.00;0.00;;;18.00;99.90;;;;;;5030660;28;20269;-72
2022/08/02 00:07:00;;;;;;;0.00;0.00;;;18.00;99.90;;;;;;5021152;28;20307;-72
2022/08/02 00:09:27;;;;;;;0.00;0.00;;;17.90;99.90;;;;;;5031574;28;20207;-71
2022/08/02 00:11:57;;;;;;;0.00;0.00;;;17.90;99.90;;;;;;5042579;28;20282;-72
2022/08/02 00:14:24;;;;;;;0.00;0.00;;;17.90;99.90;;;;;;5024344;28;20204;-72
2022/08/02 00:16:51;;;;;;;0.00;0.00;;;17.90;99.90;;;;;;5047266;28;20215;-72
2022/08/02 00:19:18;;;;;;;0.00;0.00;;;17.90;99.90;;;;;;5044360;28;20203;-72
2022/08/02 00:21:45;;;;;;;0.00;0.00;;;17.90;99.90;;;;;;5049303;28;20289;-72
2022/08/02 00:24:12;;;;;;;0.00;0.00;;;17.90;99.90;;;;;;5023401;28;20217;-70
2022/08/02 00:26:39;;;;;;;0.00;0.00;;;18.00;99.90;;;;;;5032909;28;20234;-72
2022/08/02 00:29:07;;;;;;;0.00;0.00;;;18.00;99.90;;;;;;5027256;28;20290;-72
2022/08/02 00:31:34;;;;;;;0.00;0.00;;;18.00;99.90;;;;;;5026811;28;20256;-71
2022/08/02 00:34:05;;;;;;;0.00;0.00;;;17.90;99.90;;;;;;5028438;28;20278;-72
2022/08/02 00:36:32;;;;;;;0.00;0.00;;;;;;;;;;5045444;28;20226;-73
2022/08/02 00:38:59;;;;;;;0.00;0.00;;;17.90;99.90;;;;;;5025517;28;20255;-72
2022/08/02 00:41:26;;;;;;;0.00;0.00;;;17.70;99.90;;;;;;5029024;28;20203;-71
2022/08/02 00:43:53;;;;;;;0.00;0.00;;;17.60;99.90;;;;;;5028932;28;20192;-72
2022/08/02 00:46:22;;;;;;;0.00;0.00;;;17.60;99.90;;;;;;5029345;28;20280;-72
2022/08/02 00:48:49;;;;;;;0.00;0.00;;;17.60;99.90;;;;;;5023337;28;20227;-72
2022/08/02 00:51:17;;;;;;;0.00;0.00;;;17.60;99.90;;;;;;5027754;28;20213;-73
2022/08/02 00:53:44;;;;;;;0.00;0.00;;;17.70;99.90;;;;;;5029145;28;20191;-72
2022/08/02 00:56:11;;;;;;;0.00;0.00;;;17.70;99.90;;;;;;5030438;28;20211;-73
2022/08/02 00:58:38;;;;;;;0.00;0.00;;;17.70;99.90;;;;;;5019408;28;20253;-72
2022/08/02 01:01:06;;;;;;;0.00;0.00;;;17.70;99.90;;;;;;5028412;28;20588;-72
2022/08/02 01:03:34;;;;;;;0.00;0.00;;;17.70;99.90;;;;;;5028235;28;20203;-71
2022/08/02 01:06:01;;;;;;;0.00;0.00;;;17.70;99.90;;;;;;5039558;28;20218;-72
2022/08/02 01:08:28;;;;;;;0.00;0.00;;;17.70;99.90;;;;;;5042051;28;20286;-72
2022/08/02 01:10:55;;;;;;;0.00;0.00;;;17.80;99.90;;;;;;5030456;28;20210;-72
2022/08/02 01:13:24;;;;;;;0.00;0.00;;;17.70;99.90;;;;;;5042883;28;20571;-72
2022/08/02 01:16:06;;;;;;;0.00;0.00;;;17.70;99.90;;;;;;5025441;28;20233;-72
2022/08/02 01:18:40;;;;;;;0.00;0.00;;;17.70;99.90;;;;;;5028930;28;20203;-72
2022/08/02 01:21:28;;;;;;;0.00;0.00;;;17.70;99.90;;;;;;5048967;28;20202;-72
2022/08/02 01:24:11;;;;;;;0.00;0.00;;;17.60;99.90;;;;;;5032997;28;20199;-72
2022/08/02 01:26:43;;;;;;;0.00;0.00;;;17.70;99.90;;;;;;5044908;28;20214;-72
2022/08/02 01:29:18;;;;;;;0.00;0.00;;;17.70;99.90;;;;;;5048119;28;20210;-72
2022/08/02 01:31:49;;;;;;;0.00;0.00;;;;;;;;;;5031763;28;20631;-72
2022/08/02 01:34:19;;;;;;;0.00;0.00;;;;;;;;;;5028008;28;20230;-73
2022/08/02 01:36:52;;;;;;;0.00;0.00;;;;;;;;;;5027734;28;20227;-72
2022/08/02 01:39:21;;;;;;;0.00;0.00;;;;;;;;;;5047228;28;20265;-72
2022/08/02 01:41:50;;;;;;;0.00;0.00;;;;;;;;;;5034302;28;20219;-73
2022/08/02 01:44:19;;;;;;;0.00;0.00;;;;;;;;;;5026420;28;20215;-73
2022/08/02 01:46:47;;;;;;;0.00;0.00;;;;;;;;;;5033391;28;20222;-73
2022/08/02 01:49:16;;;;;;;0.00;0.00;;;;;;;;;;5029993;28;20207;-72
2022/08/02 01:54:32;;;;;;;0.00;0.00;;;17.80;99.90;;;;;;5030025;28;20200;-72
2022/08/02 01:57:02;;;;;;;0.00;0.00;;;17.70;99.90;;;;;;5046639;28;20219;-73
2022/08/02 01:59:32;;;;;;;0.00;0.00;;;17.70;99.90;;;;;;5030352;28;20231;-72
2022/08/02 02:02:00;;;;;;;0.00;0.00;;;17.60;99.90;;;;;;5033774;28;20206;-73
2022/08/02 02:04:30;;;;;;;0.00;0.00;;;17.60;99.90;;;;;;5047291;28;20200;-73
2022/08/02 02:06:58;;;;;;;0.00;0.00;;;17.60;99.90;;;;;;5026019;28;20224;-72
2022/08/02 02:09:29;;;;;;;0.00;0.00;;;17.60;99.90;;;;;;5032219;28;20203;-71
2022/08/02 02:11:59;;;;;;;0.00;0.00;;;17.50;99.90;;;;;;5042956;28;20191;-72
2022/08/02 02:14:30;;;;;;;0.00;0.00;;;17.40;99.90;;;;;;5030565;28;20210;-72
2022/08/02 02:16:59;;;;;;;0.00;0.00;;;17.30;99.90;;;;;;5049029;28;20247;-72
2022/08/02 02:19:27;;;;;;;0.00;0.00;;;17.20;99.90;;;;;;5031797;28;20672;-71
2022/08/02 02:21:55;;;;;;;0.00;0.00;;;17.20;99.90;;;;;;5054683;28;20204;-72
2022/08/02 02:24:22;;;;;;;0.00;0.00;;;;;;;;;;5029720;28;20215;-72
2022/08/02 02:26:50;;;;;;;0.00;0.00;;;;;;;;;;5032762;28;20223;-72
2022/08/02 02:29:19;;;;;;;0.00;0.00;;;;;;;;;;5033820;28;20210;-73
2022/08/02 02:31:49;;;;;;;0.00;0.00;;;17.20;99.90;;;;;;5031668;28;20200;-73
2022/08/02 02:34:24;;;;;;;0.00;0.00;;;16.70;99.90;;;;;;5046968;28;20733;-72
2022/08/02 02:36:52;;;;;;;0.00;0.00;;;16.60;99.90;;;;;;5043140;28;20221;-72
2022/08/02 02:39:21;;;;;;;0.00;0.00;;;;;;;;;;5026568;28;20203;-71
2022/08/02 02:41:49;;;;;;;0.00;0.00;;;;;;;;;;5029163;28;20677;-72
2022/08/02 02:44:18;;;;;;;0.00;0.00;;;;;;;;;;5027130;28;20236;-72
2022/08/02 02:46:49;;;;;;;0.00;0.00;;;;;;;;;;5044030;28;20219;-73
2022/08/02 02:49:18;;;;;;;0.00;0.00;;;;;;;;;;5031605;28;20208;-73
2022/08/02 02:51:46;;;;;;;0.00;0.00;;;;;;;;;;5032901;28;20200;-72
2022/08/02 02:54:17;;;;;;;0.00;0.00;;;;;;;;;;5028146;28;20245;-72
2022/08/02 02:56:46;;;;;;;0.00;0.00;;;;;;;;;;5048216;28;20219;-73
2022/08/02 02:59:14;;;;;;;0.00;0.00;;;;;;;;;;5049376;28;20234;-72
2022/08/02 03:01:41;;;;;;;0.00;0.00;;;;;;;;;;5028228;28;20207;-75
2022/08/02 03:04:12;;;;;;;0.00;0.00;;;;;;;;;;5051953;28;20293;-75
2022/08/02 03:06:39;;;;;;;0.00;0.00;;;;;;;;;;5037703;28;20219;-72
2022/08/02 03:09:07;;;;;;;0.00;0.00;;;;;;;;;;5052787;28;20252;-72
2022/08/02 03:11:35;;;;;;;0.00;0.00;;;;;;;;;;5027495;28;20203;-72
2022/08/02 03:14:04;;;;;;;0.00;0.00;;;;;;;;;;5029804;28;20202;-72
2022/08/02 03:16:31;;;;;;;0.00;0.00;;;;;;;;;;5025288;28;20227;-73
2022/08/02 03:19:02;;;;;;;0.00;0.00;;;;;;;;;;5028529;28;20257;-72
2022/08/02 03:21:31;;;;;;;0.00;0.00;;;;;;;;;;5028453;28;20211;-73
2022/08/02 03:23:58;;;;;;;0.00;0.00;;;;;;;;;;5044123;28;20283;-73
2022/08/02 03:26:25;;;;;;;0.00;0.00;;;;;;;;;;5045061;28;20298;-73
2022/08/02 03:28:53;;;;;;;0.00;0.00;;;;;;;;;;5030221;28;20204;-73
2022/08/02 03:31:20;;;;;;;0.00;0.00;;;16.10;99.90;;;;;;5028491;28;20243;-73
2022/08/02 03:33:47;;;;;;;0.00;0.00;;;16.00;99.90;;;;;;5025498;28;20246;-73
2022/08/02 03:36:19;;;;;;;0.00;0.00;;;16.00;99.90;;;;;;5030823;28;20237;-73
2022/08/02 03:38:50;;;;;;;0.00;0.00;;;16.00;99.90;;;;;;5032410;28;20226;-73
2022/08/02 03:41:18;;;;;;;0.00;0.00;;;16.00;99.90;;;;;;5046377;28;20206;-72
2022/08/02 03:43:46;;;;;;;0.00;0.00;;;16.00;99.90;;;;;;5024443;28;20210;-72
2022/08/02 03:46:15;;;;;;;0.00;0.00;;;16.00;99.90;;;;;;5028342;28;20231;-72
2022/08/02 03:48:43;;;;;;;0.00;0.00;;;;;;;;;;5031877;28;20211;-73
2022/08/02 03:51:11;;;;;;;0.00;0.00;;;;;;;;;;5027836;28;20225;-72
2022/08/02 03:53:39;;;;;;;0.00;0.00;;;;;;;;;;5024307;28;20207;-73
2022/08/02 03:56:10;;;;;;;0.00;0.00;;;;;;;;;;5029946;28;20220;-72
2022/08/02 03:58:37;;;;;;;0.00;0.00;;;15.80;99.90;;;;;;5034619;28;20199;-73
2022/08/02 04:01:04;;;;;;;0.00;0.00;;;16.00;99.90;;;;;;5032179;28;20207;-72
2022/08/02 04:03:32;;;;;;;0.00;0.00;;;15.90;99.90;;;;;;5031040;28;20294;-72
2022/08/02 04:05:59;;;;;;;0.00;0.00;;;16.00;99.90;;;;;;5025116;28;20233;-73
2022/08/02 04:08:26;;;;;;;0.00;0.00;;;16.00;99.90;;;;;;5052270;28;20290;-73
2022/08/02 04:13:39;;;;;;;0.00;0.00;;;16.10;99.90;;;;;;5025102;28;20195;-73
2022/08/02 04:16:13;;;;;;;0.00;0.00;;;16.20;99.90;;;;;;5021950;28;20218;-72
2022/08/02 04:18:45;;;;;;;0.00;0.00;;;16.40;99.90;;;;;;5025817;28;20230;-74
2022/08/02 04:21:17;;;;;;;0.00;0.00;;;16.30;99.90;;;;;;5024554;28;20203;-72
2022/08/02 04:23:47;;;;;;;0.00;0.00;;;16.50;99.90;;;;;;5023631;28;20678;-74
2022/08/02 04:26:14;;;;;;;0.00;0.00;;;16.50;99.90;;;;;;5013775;28;20231;-76
2022/08/02 04:28:43;;;;;;;0.00;0.00;;;16.60;99.90;;;;;;5046097;28;20207;-75
2022/08/02 04:31:11;;;;;;;0.00;0.00;;;16.70;99.90;;;;;;5027628;28;20207;-76
2022/08/02 04:33:38;;;;;;;0.00;0.00;;;16.80;99.90;;;;;;5025980;28;20297;-76
2022/08/02 04:36:06;;;;;;;0.00;0.00;;;16.90;99.90;;;;;;5027250;28;20234;-75
2022/08/02 04:38:34;;;;;;;0.00;0.00;;;17.00;99.90;;;;;;5024333;28;20199;-76
2022/08/02 04:41:04;;;;;;;0.00;0.00;;;17.10;99.90;;;;;;5031083;28;20202;-76
2022/08/02 04:43:31;;;;;;;0.00;0.00;;;17.40;99.90;;;;;;5025568;28;20323;-74
2022/08/02 04:46:01;;;;;;;0.00;0.00;;;17.50;99.90;;;;;;5028748;28;20219;-74
2022/08/02 04:48:29;;;;;;;0.00;0.00;;;17.70;99.90;;;;;;5024272;28;20242;-74
2022/08/02 04:50:56;;;;;;;0.00;0.00;;;17.80;99.90;;;;;;5028876;28;20206;-74
2022/08/02 04:53:23;;;;;;;0.00;0.00;;;17.70;99.90;;;;;;5028075;28;20290;-74
2022/08/02 04:55:50;;;;;;;0.00;0.00;;;17.60;99.90;;;;;;5032635;28;20227;-74
2022/08/02 04:58:17;;;;;;;0.00;0.00;;;17.60;99.90;;;;;;5029399;28;20218;-74
2022/08/02 05:00:45;;;;;;;0.00;0.00;;;17.60;99.90;;;;;;5029230;28;20290;-73
2022/08/02 05:03:14;;;;;;;0.00;0.00;;;17.60;99.90;;;;;;5035448;28;20207;-71
2022/08/02 05:05:41;;;;;;;0.00;0.00;;;17.50;99.90;;;;;;5031064;28;20229;-74
2022/08/02 05:08:09;;;;;;;0.00;0.00;;;17.50;99.90;;;;;;5045375;28;20211;-73
2022/08/02 05:10:35;;;;;;;0.00;0.00;;;17.50;99.90;;;;;;5040200;28;20291;-73
2022/08/02 05:13:05;;;;;;;0.00;0.00;;;17.50;99.90;;;;;;5041552;28;20195;-75
2022/08/02 05:15:32;;;;;;;0.00;0.00;;;17.50;99.90;;;;;;5039820;28;20227;-75
2022/08/02 05:18:00;;;;;;;0.00;0.00;;;17.50;99.90;;;;;;5032736;28;20206;-74
2022/08/02 05:20:28;;;;;;;0.00;0.00;;;17.40;99.90;;;;;;5026167;28;20230;-74
2022/08/02 05:22:55;;;;;;;0.00;0.00;;;17.50;99.90;;;;;;5029675;28;20207;-74
2022/08/02 05:25:22;;;;;;;0.00;0.00;;;17.40;99.90;;;;;;5027684;28;20198;-74
2022/08/02 05:27:50;;;;;;;0.00;0.00;;;17.40;99.90;;;;;;5047168;28;20234;-75
2022/08/02 05:30:17;;;;;;;0.00;0.00;;;17.50;99.90;;;;;;5025587;28;20207;-74
2022/08/02 05:32:46;;;;;;;0.00;0.00;;;17.40;99.90;;;;;;5031872;28;20222;-75
2022/08/02 05:35:13;;;;;;;0.00;0.00;;;17.50;99.90;;;;;;5026835;28;20253;-71
2022/08/02 05:37:42;;;;;;;0.00;0.00;;;17.60;99.90;;;;;;5033572;28;20229;-71
2022/08/02 05:40:10;;;;;;;0.00;0.00;;;17.70;99.90;;;;;;5044305;28;20204;-71
2022/08/02 05:42:37;;;;;;;0.00;0.00;;;17.70;99.90;;;;;;5027216;28;20204;-71
2022/08/02 05:45:05;;;;;;;0.00;0.00;;;17.70;99.90;;;;;;5030375;28;20199;-76
2022/08/02 05:47:32;;;;;;;0.00;0.00;;;17.70;99.90;;;;;;5028204;28;20250;-71
2022/08/02 05:50:03;;;;;;;0.00;0.00;;;17.80;99.90;;;;;;5032922;28;20203;-72
2022/08/02 05:52:39;;;;;;;0.00;0.00;;;17.80;99.90;;;;;;5029250;28;20203;-71
2022/08/02 05:55:27;;;;;;;0.00;0.00;;;17.70;99.90;;;;;;5050231;28;20235;-72
2022/08/02 05:58:02;;;;;;;0.00;0.00;;;17.80;99.90;;;;;;5030304;28;20219;-71
2022/08/02 06:00:31;;;;;;;0.00;0.00;;;17.70;99.90;;;;;;5029590;28;20781;-71
2022/08/02 06:03:16;;;;;;;0.00;0.00;;;17.90;99.90;;;;;;5033933;28;20345;-71
2022/08/02 06:05:51;;;;;;;0.00;0.00;;;18.00;99.90;;;;;;5031975;28;20226;-70
2022/08/02 06:08:21;;;;;;;0.07;0.07;;;18.10;99.90;;;;;;5033861;28;20289;-70
2022/08/02 06:10:52;;;;;;;0.00;0.00;;;18.30;99.90;;;;;;5029481;28;20200;-71
2022/08/02 06:13:20;;;;;;;0.00;0.00;;;18.60;99.90;;;;;;5037454;28;20207;-71
2022/08/02 06:15:52;;;;;;;0.00;0.00;;;18.70;99.90;;;;;;5030062;28;20242;-70
2022/08/02 06:18:19;;;;;;;0.00;0.00;;;18.80;99.90;;;;;;5033077;28;20298;-71
2022/08/02 06:20:50;;;;;;;0.00;0.00;;;19.10;99.90;;;;;;5028052;28;20203;-71
2022/08/02 06:23:21;;;;;;;0.00;0.00;;;19.50;99.90;;;;;;5028266;28;20212;-71
2022/08/02 06:25:51;;;;;;;0.00;0.00;;;;;;;;;;5020995;28;20219;-70
2022/08/02 06:28:20;;;;;;;0.00;0.00;;;19.80;99.90;;;;;;5028329;28;20250;-70
2022/08/02 06:30:47;;;;;;;0.00;0.00;;;20.30;99.90;;;;;;5031391;28;20204;-70
2022/08/02 06:33:14;;;;;;;0.00;0.00;;;20.50;99.90;;;;;;5028935;28;20225;-70
2022/08/02 06:35:45;;;;;;;0.00;0.00;;;20.70;99.90;;;;;;5027271;28;20640;-70
2022/08/02 06:38:18;;;;;;;0.00;0.00;;;21.00;99.90;;;;;;5027425;28;20269;-68
2022/08/02 06:40:53;;;;;;;0.00;0.00;;;21.10;99.90;;;;;;5028209;28;20311;-70
2022/08/02 06:43:28;;;;;;;0.00;0.00;;;21.20;99.90;;;;;;5029226;28;20211;-70
2022/08/02 06:45:55;;;;;;;0.00;0.00;;;21.40;99.90;;;;;;5030302;28;20227;-70
2022/08/02 06:48:22;;;;;;;0.00;0.00;;;21.50;99.90;;;;;;5030269;28;20269;-70
2022/08/02 06:50:49;;;;;;;0.00;0.00;;;21.70;99.90;;;;;;5027613;28;20215;-70
2022/08/02 06:53:16;;;;;;;0.00;0.00;;;21.90;99.90;;;;;;5027536;28;20707;-69
2022/08/02 06:55:43;;;;;;;0.00;0.00;;;22.10;99.90;;;;;;5034342;28;20211;-70
2022/08/02 06:58:12;;;;;;;0.00;0.00;;;22.10;99.90;;;;;;5033651;28;20194;-70
2022/08/02 07:00:39;;;;;;;0.00;0.00;;;22.10;99.90;;;;;;5028922;28;20199;-70
2022/08/02 07:03:07;;;;;;;0.00;0.00;;;22.10;99.90;;;;;;5034050;28;20202;-70
2022/08/02 07:05:35;;;;;;;0.00;0.00;;;22.20;99.90;;;;;;5024731;28;20208;-69
2022/08/02 07:08:02;;;;;;;0.00;0.00;;;22.30;99.90;;;;;;5031563;28;20281;-70
2022/08/02 07:10:29;;;;;;;0.00;0.00;;;22.50;99.90;;;;;;5022054;28;20203;-70
2022/08/02 07:12:56;;;;;;;0.00;0.00;;;22.50;99.90;;;;;;5036852;28;20203;-70
2022/08/02 07:15:24;;;;;;;0.00;0.00;;;22.70;99.90;;;;;;5026372;28;20199;-70
2022/08/02 07:17:51;;;;;;;0.00;0.00;;;22.80;99.90;;;;;;5029646;28;20227;-70
2022/08/02 07:20:19;;;;;;;0.00;0.00;;;23.00;99.90;;;;;;5037712;28;20218;-69
2022/08/02 07:22:46;;;;;;;0.00;0.00;;;23.10;99.90;;;;;;5041369;28;20205;-73
2022/08/02 07:25:14;;;;;;;0.00;0.00;;;;;;;;;;5030836;28;20205;-70
2022/08/02 07:27:42;;;;;;;0.00;0.00;;;;;;;;;;5023960;28;20704;-70
2022/08/02 07:30:10;;;;;;;0.00;0.00;;;;;;;;;;5035415;28;20199;-70
2022/08/02 07:32:39;;;;;;;0.00;0.00;;;;;;;;;;5027088;28;20215;-70
2022/08/02 07:35:06;;;;;;;0.00;0.00;;;;;;;;;;5014767;28;20204;-70
2022/08/02 07:37:34;;;;;;;0.00;0.00;;;;;;;;;;5017543;28;20273;-70
2022/08/02 07:40:02;;;;;;;0.00;0.00;;;;;;;;;;5025904;28;20210;-69
2022/08/02 07:42:29;;;;;;;0.00;0.00;;;;;;;;;;5041294;28;20199;-70
2022/08/02 07:44:56;;;;;;;0.00;0.00;;;24.70;99.90;;;;;;5039893;28;20352;-70
2022/08/02 07:47:23;;;;;;;0.00;0.00;;;24.70;99.90;;;;;;5019976;28;20215;-70
2022/08/02 07:49:52;;;;;;;0.00;0.00;;;24.70;99.90;;;;;;5025192;28;20208;-70
2022/08/02 07:52:19;;;;;;;0.00;0.00;;;24.70;99.90;;;;;;5019751;28;20208;-69
2022/08/02 07:54:46;;;;;;;0.00;0.00;;;24.70;99.90;;;;;;5040741;28;20205;-71
2022/08/02 07:57:13;;;;;;;0.00;0.00;;;24.80;99.90;;;;;;5038036;28;20212;-69
2022/08/02 07:59:40;;;;;;;0.00;0.00;;;24.70;99.90;;;;;;5033845;28;20222;-70
2022/08/02 08:02:08;;;;;;;0.00;0.00;;;24.80;99.90;;;;;;5018232;28;20199;-69
2022/08/02 08:04:35;;;;;;;0.00;0.00;;;24.90;99.90;;;;;;5043170;28;20203;-70
2022/08/02 08:07:04;;;;;;;0.00;0.00;;;25.00;99.90;;;;;;5019060;28;20219;-71
2022/08/02 08:09:32;;;;;;;0.00;0.00;;;25.10;99.90;;;;;;5014958;28;20215;-70
2022/08/02 08:11:59;;;;;;;0.00;0.00;;;25.10;99.90;;;;;;5020327;28;20298;-70
2022/08/02 08:14:25;;;;;;;0.00;0.00;;;25.20;99.90;;;;;;5030245;28;20217;-73
2022/08/02 08:16:52;;;;;;;0.00;0.00;;;25.30;99.90;;;;;;5023827;28;20263;-69
2022/08/02 08:19:19;;;;;;;0.00;0.00;;;25.20;99.90;;;;;;5021317;28;20195;-69
2022/08/02 08:21:46;;;;;;;0.00;0.00;;;25.30;99.90;;;;;;5034875;28;20245;-68
2022/08/02 08:24:14;;;;;;;0.00;0.00;;;25.30;99.90;;;;;;5020366;28;20211;-69
2022/08/02 08:26:41;;;;;;;0.00;0.00;;;25.30;99.90;;;;;;5016392;28;20313;-74
2022/08/02 08:29:09;;;;;;;0.00;0.00;;;25.40;99.90;;;;;;5025058;28;20372;-76
2022/08/02 08:31:36;;;;;;;0.00;0.00;;;25.50;99.90;;;;;;5032936;28;20209;-69
2022/08/02 08:34:04;;;;;;;0.00;0.00;;;25.50;99.90;;;;;;5039230;28;20275;-68
2022/08/02 08:36:31;;;;;;;0.00;0.00;;;25.50;99.90;;;;;;5036401;28;20231;-69
2022/08/02 08:38:59;;;;;;;0.00;0.00;;;25.60;99.90;;;;;;5017765;28;20195;-70
2022/08/02 08:41:27;;;;;;;0.00;0.00;;;25.70;99.90;;;;;;5028816;28;20206;-70
2022/08/02 08:43:54;;;;;;;0.00;0.00;;;25.90;99.90;;;;;;5025958;28;20204;-70
2022/08/02 08:46:28;;;;;;;0.00;0.00;;;26.10;99.90;;;;;;5028052;28;20230;-70
2022/08/02 08:48:59;;;;;;;0.00;0.00;;;26.20;99.90;;;;;;5017739;28;20242;-69
2022/08/02 08:51:31;;;;;;;0.00;0.00;;;26.40;99.90;;;;;;5021233;28;20207;-69
2022/08/02 08:54:02;;;;;;;0.00;0.00;;;26.50;99.90;;;;;;5040770;28;20273;-69
2022/08/02 08:56:34;;;;;;;0.00;0.00;;;26.70;99.90;;;;;;5024505;28;20215;-69
2022/08/02 08:59:02;;;;;;;0.00;0.00;;;26.60;99.90;;;;;;5025368;28;20194;-68
2022/08/02 09:01:29;;;;;;;0.00;0.00;;;26.70;99.90;;;;;;5040053;28;20203;-69
2022/08/02 09:03:56;;;;;;;0.00;0.00;;;26.60;99.90;;;;;;5032226;28;20207;-68
2022/08/02 09:06:24;;;;;;;0.00;0.00;;;26.60;99.90;;;;;;5029031;28;20245;-68
2022/08/02 09:08:51;;;;;;;0.00;0.00;;;26.60;99.90;;;;;;5046558;28;20217;-70
2022/08/02 09:11:20;;;;;;;0.00;0.00;;;;;;;;;;5025721;28;20222;-68
2022/08/02 09:13:53;;;;;;;0.00;0.00;;;27.00;99.90;;;;;;5027038;28;20214;-70
2022/08/02 09:16:31;;;;;;;0.00;0.00;;;;;;;;;;5022718;28;20775;-69
2022/08/02 09:18:59;;;;;;;0.00;0.00;;;27.30;99.90;;;;;;5048549;28;20194;-69
2022/08/02 09:21:35;;;;;;;0.00;0.00;;;27.40;99.90;;;;;;5023379;28;20207;-69
2022/08/02 09:24:15;;;;;;;0.00;0.00;;;27.40;99.90;;;;;;5028800;28;20237;-70
2022/08/02 09:26:42;;;;;;;0.00;0.00;;;27.50;99.90;;;;;;5042082;28;20226;-71
2022/08/02 09:29:11;;;;;;;0.00;0.00;;;27.50;99.90;;;;;;5027631;28;20211;-70
2022/08/02 09:31:38;;;;;;;0.00;0.00;;;27.50;99.90;;;;;;5021959;28;20200;-70
2022/08/02 09:34:06;;;;;;;0.00;0.00;;;;;;;;;;5049385;28;20202;-70
2022/08/02 09:36:38;;;;;;;0.00;0.00;;;;;;;;;;5035412;28;20241;-69
2022/08/02 09:39:06;;;;;;;0.00;0.00;;;;;;;;;;5051118;28;20200;-69
2022/08/02 09:41:34;;;;;;;0.00;0.00;;;;;;;;;;5035473;28;20238;-70
2022/08/02 09:44:02;;;;;;;0.00;0.00;;;;;;;;;;5033688;28;20203;-69
2022/08/02 09:46:32;;;;;;;0.00;0.00;;;;;;;;;;5033087;28;20234;-69
2022/08/02 09:49:00;;;;;;;0.00;0.00;;;;;;;;;;5029910;28;20290;-70
2022/08/02 09:51:27;;;;;;;0.00;0.00;;;;;;;;;;5035064;28;20202;-70
2022/08/02 09:53:55;;;;;;;0.00;0.00;;;;;;;;;;5035769;28;20204;-71
2022/08/02 09:56:24;;;;;;;0.00;0.00;;;;;;;;;;5038757;28;20222;-71
2022/08/02 09:58:53;;;;;;;0.00;0.00;;;;;;;;;;5039807;28;20279;-70
2022/08/02 10:01:21;;;;;;;0.00;0.00;;;28.20;99.90;;;;;;5041776;28;20256;-69
2022/08/02 10:03:57;;;;;;;0.00;0.00;;;28.20;99.90;;;;;;5054334;28;20203;-70
2022/08/02 10:06:24;;;;;;;0.00;0.00;;;28.20;99.90;;;;;;5037697;28;20250;-68
2022/08/02 10:08:52;;;;;;;0.00;0.00;;;28.20;99.90;;;;;;5053104;28;20272;-70
2022/08/02 10:11:20;;;;;;;0.00;0.00;;;28.20;99.90;;;;;;5049851;28;20210;-70
2022/08/02 10:13:47;;;;;;;0.00;0.00;;;28.10;99.90;;;;;;5050603;28;20196;-73
2022/08/02 10:16:16;;;;;;;0.00;0.00;;;28.10;99.90;;;;;;5042996;28;20219;-70
2022/08/02 10:18:43;;;;;;;0.00;0.00;;;28.20;99.90;;;;;;5051582;28;20279;-69
2022/08/02 10:21:15;;;;;;;0.00;0.00;;;28.20;99.90;;;;;;5047671;28;20187;-70
2022/08/02 10:23:44;;;;;;;0.00;0.00;;;28.30;99.90;;;;;;5035389;28;20203;-70
2022/08/02 10:26:16;;;;;;;0.00;0.00;;;28.40;99.90;;;;;;5037841;28;20214;-69
2022/08/02 10:28:47;;;;;;;0.00;0.00;;;28.40;99.90;;;;;;5033825;28;20218;-70
2022/08/02 10:31:16;;;;;;;0.00;0.00;;;;;;;;;;5040209;28;20202;-71
2022/08/02 10:33:45;;;;;;;0.00;0.00;;;28.00;99.90;;;;;;5034193;28;20222;-70
2022/08/02 10:36:14;;;;;;;0.00;0.00;;;27.80;99.90;;;;;;5036578;28;20222;-68
2022/08/02 10:38:43;;;;;;;0.00;0.00;;;27.70;99.90;;;;;;5031185;28;20223;-70
2022/08/02 10:41:11;;;;;;;0.00;0.00;;;27.60;99.90;;;;;;5046197;28;20214;-75
2022/08/02 10:43:59;;;;;;;0.00;0.00;;;27.80;99.90;;;;;;5033995;28;20198;-69
2022/08/02 10:46:32;;;;;;;0.00;0.00;;;27.90;99.90;;;;;;5022442;28;20285;-69
2022/08/02 10:49:11;;;;;;;0.00;0.00;;;27.90;99.90;;;;;;5032703;28;20284;-70
2022/08/02 10:52:05;;;;;;;0.00;0.00;;;27.90;99.90;;;;;;5030754;28;20261;-69
2022/08/02 10:54:35;;;;;;;0.00;0.00;;;27.90;99.90;;;;;;5021109;28;20239;-69
2022/08/02 10:57:03;;;;;;;0.00;0.00;;;27.90;99.90;;;;;;5047039;28;20276;-69
2022/08/02 10:59:32;;;;;;;0.00;0.00;;;28.00;99.90;;;;;;5032682;28;20191;-71
2022/08/02 11:02:01;;;;;;;0.00;0.00;;;28.10;99.90;;;;;;5028685;28;20235;-71
2022/08/02 11:04:29;;;;;;;0.00;0.00;;;28.20;99.90;;;;;;5041788;28;20685;-69
2022/08/02 11:07:14;;;;;;;0.00;0.00;;;28.30;99.90;;;;;;5025242;28;20254;-69
2022/08/02 11:09:41;;;;;;;0.00;0.00;;;28.40;99.90;;;;;;5026120;28;20219;-72
2022/08/02 11:12:10;;;;;;;0.00;0.00;;;28.60;99.90;;;;;;5043588;28;20411;-70
2022/08/02 11:14:38;;;;;;;0.00;0.00;;;28.70;99.90;;;;;;5033472;28;20211;-69
2022/08/02 11:17:12;;;;;;;0.00;0.00;;;29.30;99.90;;;;;;5031376;28;20219;-70
2022/08/02 11:19:58;;;;;;;0.00;0.00;;;;;;;;;;5042640;28;20230;-69
2022/08/02 11:22:26;;;;;;;0.00;0.00;;;28.90;99.90;;;;;;5029760;28;20207;-70
2022/08/02 11:24:53;;;;;;;0.00;0.00;;;;;;;;;;5046722;28;20191;-70
2022/08/02 11:27:22;;;;;;;0.00;0.00;;;;;;;;;;5033532;28;20281;-70
2022/08/02 11:29:49;;;;;;;0.00;0.00;;;;;;;;;;5027982;28;20223;-69
2022/08/02 11:32:18;;;;;;;0.00;0.00;;;;;;;;;;5029045;28;20219;-71
2022/08/02 11:34:46;;;;;;;0.00;0.00;;;;;;;;;;5051853;28;20253;-70
2022/08/02 11:37:14;;;;;;;0.00;0.00;;;;;;;;;;5029393;28;20223;-70
2022/08/02 11:39:51;;;;;;;0.00;0.00;;;;;;;;;;5034383;28;20282;-70
2022/08/02 11:42:22;;;;;;;0.00;0.00;;;;;;;;;;5048797;28;20203;-74
2022/08/02 11:44:50;;;;;;;0.00;0.00;;;;;;;;;;5027341;28;20256;-76
2022/08/02 11:47:18;;;;;;;0.00;0.00;;;;;;;;;;5044688;28;20239;-70
2022/08/02 11:49:45;;;;;;;0.00;0.00;;;29.40;99.90;;;;;;5044017;28;20269;-71
2022/08/02 11:52:12;;;;;;;0.00;0.00;;;29.40;99.90;;;;;;5029982;28;20203;-69
2022/08/02 11:54:42;;;;;;;0.00;0.00;;;29.40;99.90;;;;;;5029352;28;20211;-74
2022/08/02 11:57:14;;;;;;;0.00;0.00;;;29.30;99.90;;;;;;5033226;28;20349;-72
2022/08/02 11:59:42;;;;;;;0.00;0.00;;;;;;;;;;5031640;28;20249;-70
2022/08/02 12:02:12;;;;;;;0.00;0.00;;;29.50;99.90;;;;;;5032087;28;20573;-69
2022/08/02 12:04:40;;;;;;;0.00;0.00;;;;;;;;;;5032208;28;20208;-70
2022/08/02 12:07:08;;;;;;;0.00;0.00;;;29.60;99.90;;;;;;5025587;28;20242;-70
2022/08/02 12:09:36;;;;;;;0.00;0.00;;;29.60;99.90;;;;;;5015919;28;20308;-69
2022/08/02 12:12:05;;;;;;;0.00;0.00;;;29.60;99.90;;;;;;5038038;28;20261;-69
2022/08/02 12:14:41;;;;;;;0.00;0.00;;;29.60;99.90;;;;;;5038327;28;20257;-69
2022/08/02 12:19:54;;;;;;;0.00;0.00;;;;;;;;;;5031231;28;20275;-68
2022/08/02 12:22:24;;;;;;;0.00;0.00;;;;;;;;;;5020096;28;20258;-69
2022/08/02 12:24:53;;;;;;;0.00;0.00;;;;;;;;;;5019231;28;20620;-70
2022/08/02 12:27:32;;;;;;;0.00;0.00;;;;;;;;;;5024868;28;20226;-70
2022/08/02 12:30:00;;;;;;;0.00;0.00;;;;;;;;;;5023664;28;20615;-68
2022/08/02 12:32:28;;;;;;;0.00;0.00;;;29.70;99.90;;;;;;5041261;28;20211;-69
2022/08/02 12:35:06;;;;;;;0.00;0.00;;;;;;;;;;5027325;28;20211;-71
2022/08/02 12:37:34;;;;;;;0.00;0.00;;;;;;;;;;5041643;28;20305;-69
2022/08/02 12:40:24;;;;;;;0.00;0.00;;;29.50;99.90;;;;;;5025331;28;20206;-70
2022/08/02 12:42:55;;;;;;;0.00;0.00;;;29.40;99.90;;;;;;5024790;28;20204;-69
2022/08/02 12:45:22;;;;;;;0.00;0.00;;;29.40;99.90;;;;;;5024065;28;20227;-70
2022/08/02 12:47:51;;;;;;;0.00;0.00;;;29.40;99.90;;;;;;5019600;28;20199;-70
2022/08/02 12:50:21;;;;;;;0.00;0.00;;;29.40;99.90;;;;;;5019344;28;20219;-69
2022/08/02 12:52:49;;;;;;;0.00;0.00;;;29.50;99.90;;;;;;5035323;28;20222;-69
2022/08/02 12:55:20;;;;;;;0.00;0.00;;;29.50;99.90;;;;;;5019181;28;20210;-70
2022/08/02 12:57:59;;;;;;;0.00;0.00;;;29.50;99.90;;;;;;5040532;28;20290;-69
2022/08/02 13:00:28;;;;;;;0.00;0.00;;;29.40;99.90;;;;;;5023568;28;20207;-70
2022/08/02 13:02:55;;;;;;;0.00;0.00;;;29.30;99.90;;;;;;5047753;28;20192;-69
2022/08/02 13:05:23;;;;;;;0.00;0.00;;;29.30;99.90;;;;;;5026767;28;20755;-70
2022/08/02 13:07:50;;;;;;;0.00;0.00;;;29.20;99.90;;;;;;5019430;28;20230;-69
2022/08/02 13:10:18;;;;;;;0.00;0.00;;;29.20;99.90;;;;;;5031803;28;20236;-69
2022/08/02 13:12:45;;;;;;;0.00;0.00;;;29.20;99.90;;;;;;5044405;28;20199;-69
2022/08/02 13:15:14;;;;;;;0.00;0.00;;;29.20;99.90;;;;;;5026111;28;20204;-68
2022/08/02 13:17:40;;;;;;;0.00;0.00;;;29.20;99.90;;;;;;5034618;28;20225;-70
2022/08/02 13:20:09;;;;;;;0.00;0.00;;;29.20;99.90;;;;;;5045572;28;20217;-69
2022/08/02 13:22:37;;;;;;;0.00;0.00;;;29.20;99.90;;;;;;5026453;28;20736;-70
2022/08/02 13:25:05;;;;;;;0.00;0.00;;;29.30;99.90;;;;;;5031944;28;20195;-69
2022/08/02 13:27:32;;;;;;;0.00;0.00;;;29.30;99.90;;;;;;5031172;28;20233;-70
2022/08/02 13:30:00;;;;;;;0.00;0.00;;;29.30;99.90;;;;;;5046326;28;20301;-71
2022/08/02 13:32:28;;;;;;;0.00;0.00;;;29.40;99.90;;;;;;5033626;28;20290;-70